Time;durP1;ratioP1;P1;durP2;ratioP2;P2;SDS_P1;SDS_P2;PMS_P1;PMS_P2;Temp;Humidity;BMP_temperature;BMP_pressure;BME280_temperature;BME280_humidity;BME280_pressure;Samples;Min_cycle;Max_cycle;Signal;HPM_P1;HPM_P2
2024/03/17 00:01:05;;;;;;;19.13;2.17;;;;;;;2.46;100.00;101595.47;5053396;28;20436;-82
2024/03/17 00:03:31;;;;;;;17.70;2.53;;;;;;;2.46;100.00;101593.63;5040382;28;20412;-82
2024/03/17 00:06:00;;;;;;;18.65;2.20;;;;;;;2.36;100.00;101590.47;5042089;28;20406;-82
2024/03/17 00:08:28;;;;;;;22.50;2.90;;;;;;;2.47;100.00;101603.34;5035842;28;20416;-83
2024/03/17 00:10:55;;;;;;;14.37;2.13;;;;;;;2.38;100.00;101604.56;5035183;28;20499;-83
2024/03/17 00:13:23;;;;;;;19.02;2.42;;;;;;;2.35;100.00;101608.47;5050355;28;20420;-83
2024/03/17 00:15:50;;;;;;;20.02;2.80;;;;;;;2.38;100.00;101608.06;5029617;28;20979;-82
2024/03/17 00:18:17;;;;;;;17.33;2.50;;;;;;;2.38;100.00;101607.25;5027883;28;20786;-84
2024/03/17 00:20:45;;;;;;;23.75;2.53;;;;;;;2.27;100.00;101613.22;5033653;28;20419;-82
2024/03/17 00:23:11;;;;;;;17.20;2.25;;;;;;;2.19;100.00;101612.31;5030958;28;20419;-83
2024/03/17 00:25:40;;;;;;;14.93;2.13;;;;;;;2.13;100.00;101621.19;5025340;28;20418;-82
2024/03/17 00:28:07;;;;;;;19.38;2.42;;;;;;;2.09;100.00;101619.13;5032085;28;20417;-82
2024/03/17 00:30:34;;;;;;;19.10;2.40;;;;;;;2.12;100.00;101621.41;5035931;28;20422;-83
2024/03/17 00:33:01;;;;;;;16.25;2.30;;;;;;;2.06;100.00;101620.34;5046327;28;20419;-83
2024/03/17 00:35:28;;;;;;;17.40;2.13;;;;;;;2.04;100.00;101623.25;5052351;28;20427;-83
2024/03/17 00:37:54;;;;;;;13.97;2.10;;;;;;;2.02;100.00;101629.84;5036549;28;20514;-83
2024/03/17 00:40:22;;;;;;;18.38;2.33;;;;;;;2.09;100.00;101629.88;5048361;28;20421;-83
2024/03/17 00:42:50;;;;;;;19.27;3.03;;;;;;;1.92;100.00;101629.34;5046769;28;20782;-83
2024/03/17 00:45:17;;;;;;;21.85;2.42;;;;;;;1.92;100.00;101637.41;5039741;28;20976;-84
2024/03/17 00:47:44;;;;;;;16.90;2.20;;;;;;;1.79;100.00;101638.16;5052760;28;20411;-82
2024/03/17 00:50:12;;;;;;;18.67;2.70;;;;;;;1.81;100.00;101636.94;5028941;28;20419;-82
2024/03/17 00:52:39;;;;;;;24.40;2.53;;;;;;;1.82;100.00;101641.31;5032555;28;20417;-84
2024/03/17 00:55:07;;;;;;;15.20;2.28;;;;;;;1.83;100.00;101636.75;5043403;28;20429;-83
2024/03/17 00:57:33;;;;;;;18.58;2.55;;;;;;;1.66;100.00;101630.88;5022615;28;20427;-82
2024/03/17 01:00:02;;;;;;;16.48;2.08;;;;;;;1.68;100.00;101636.88;5028514;28;20407;-84
2024/03/17 01:02:29;;;;;;;19.33;2.15;;;;;;;1.65;100.00;101632.72;5056155;28;20415;-82
2024/03/17 01:04:56;;;;;;;21.17;2.40;;;;;;;1.63;100.00;101644.66;5037145;28;21318;-83
2024/03/17 01:07:23;;;;;;;17.23;2.47;;;;;;;1.68;100.00;101635.00;5045494;28;20436;-83
2024/03/17 01:09:50;;;;;;;17.40;2.17;;;;;;;1.67;100.00;101641.41;5029360;28;20415;-83
2024/03/17 01:12:17;;;;;;;17.23;2.60;;;;;;;1.58;100.00;101636.41;5052631;28;20399;-82
2024/03/17 01:14:44;;;;;;;17.73;2.33;;;;;;;1.58;100.00;101639.91;5034753;28;20918;-82
2024/03/17 01:17:12;;;;;;;18.20;2.63;;;;;;;1.60;100.00;101642.38;5034030;28;20415;-82
2024/03/17 01:19:40;;;;;;;17.83;2.20;;;;;;;1.55;100.00;101642.97;5045545;28;20429;-82
2024/03/17 01:22:06;;;;;;;17.88;2.20;;;;;;;1.54;100.00;101641.31;5029050;28;20433;-83
2024/03/17 01:24:34;;;;;;;19.25;2.58;;;;;;;1.50;100.00;101645.41;5056129;28;20411;-82
2024/03/17 01:27:01;;;;;;;21.67;2.65;;;;;;;1.47;100.00;101648.50;5062453;28;20421;-83
2024/03/17 01:29:29;;;;;;;19.83;2.50;;;;;;;1.54;100.00;101654.72;5045051;28;20435;-83
2024/03/17 01:31:55;;;;;;;16.30;2.20;;;;;;;1.47;100.00;101645.81;5034872;28;20448;-83
2024/03/17 01:34:24;;;;;;;20.15;2.20;;;;;;;1.42;100.00;101651.75;5056572;28;20872;-82
2024/03/17 01:36:51;;;;;;;15.87;2.17;;;;;;;1.33;100.00;101647.56;5049151;28;20415;-83
2024/03/17 01:39:18;;;;;;;15.45;2.85;;;;;;;1.24;100.00;101643.34;5028820;28;20776;-82
2024/03/17 01:41:45;;;;;;;15.77;2.33;;;;;;;1.32;100.00;101643.22;5051797;28;20431;-83
2024/03/17 01:44:23;;;;;;;17.38;2.55;;;;;;;1.26;100.00;101650.19;5036796;28;21098;-82
2024/03/17 01:46:50;;;;;;;18.27;2.38;;;;;;;1.20;100.00;101645.59;5038104;28;20416;-84
2024/03/17 01:49:18;;;;;;;24.77;2.50;;;;;;;1.21;100.00;101652.63;5033897;28;20427;-83
2024/03/17 01:51:48;;;;;;;21.03;2.60;;;;;;;1.23;100.00;101644.38;5039029;28;20423;-82
2024/03/17 01:54:16;;;;;;;17.77;2.38;;;;;;;1.30;100.00;101645.28;5043902;28;20426;-82
2024/03/17 01:56:44;;;;;;;14.10;2.17;;;;;;;1.16;100.00;101653.22;5052134;28;20446;-82
2024/03/17 01:59:12;;;;;;;13.35;2.08;;;;;;;1.13;100.00;101647.38;5029807;28;20428;-82
2024/03/17 02:01:38;;;;;;;18.10;2.22;;;;;;;1.04;100.00;101645.84;5035943;28;20433;-82
2024/03/17 02:04:06;;;;;;;15.95;2.35;;;;;;;1.15;100.00;101648.84;5043969;28;20417;-82
2024/03/17 02:06:33;;;;;;;16.90;2.37;;;;;;;1.04;100.00;101652.06;5024018;28;20420;-83
2024/03/17 02:09:02;;;;;;;15.77;2.05;;;;;;;1.00;100.00;101648.13;5031816;28;20458;-83
2024/03/17 02:11:30;;;;;;;13.30;1.70;;;;;;;1.14;100.00;101649.06;5038774;28;20412;-82
2024/03/17 02:13:58;;;;;;;17.33;2.80;;;;;;;0.96;100.00;101654.88;5039745;28;20755;-83
2024/03/17 02:16:25;;;;;;;15.13;2.25;;;;;;;0.97;100.00;101659.22;5042644;28;20931;-82
2024/03/17 02:18:55;;;;;;;15.85;2.03;;;;;;;0.95;100.00;101658.56;5033720;28;20761;-83
2024/03/17 02:21:23;;;;;;;12.67;1.90;;;;;;;0.77;100.00;101650.97;5048782;28;20885;-83
2024/03/17 02:23:52;;;;;;;17.60;2.33;;;;;;;0.78;100.00;101649.97;5033525;28;20427;-82
2024/03/17 02:26:19;;;;;;;19.02;2.40;;;;;;;0.94;100.00;101659.59;5036280;28;20423;-82
2024/03/17 02:28:49;;;;;;;23.15;2.10;;;;;;;0.94;100.00;101651.53;5045511;28;20420;-82
2024/03/17 02:31:16;;;;;;;15.15;2.17;;;;;;;0.88;100.00;101653.13;5035592;28;20440;-83
2024/03/17 02:33:44;;;;;;;17.70;2.30;;;;;;;0.79;100.00;101651.63;5043601;28;20516;-82
2024/03/17 02:36:12;;;;;;;9.50;1.50;;;;;;;0.75;100.00;101648.50;5031523;28;20432;-83
2024/03/17 02:41:28;;;;;;;14.02;2.10;;;;;;;0.67;100.00;101645.94;5047759;28;20872;-83
2024/03/17 02:43:56;;;;;;;16.30;2.50;;;;;;;0.63;100.00;101652.69;5018241;28;20444;-82
2024/03/17 02:46:24;;;;;;;15.02;1.98;;;;;;;0.70;100.00;101660.81;5033626;28;20419;-83
2024/03/17 02:48:53;;;;;;;18.77;2.13;;;;;;;0.61;100.00;101649.38;5044488;28;20420;-83
2024/03/17 02:51:22;;;;;;;19.05;2.30;;;;;;;0.55;100.00;101666.19;5046967;28;20447;-83
2024/03/17 02:53:50;;;;;;;13.23;1.90;;;;;;;0.53;100.00;101669.06;5031385;28;20421;-83
2024/03/17 02:56:19;;;;;;;17.38;1.90;;;;;;;0.46;100.00;101666.31;5045895;28;20420;-83
2024/03/17 02:58:48;;;;;;;14.88;1.92;;;;;;;0.34;100.00;101667.81;5043477;28;20424;-82
2024/03/17 03:01:16;;;;;;;12.63;1.95;;;;;;;0.54;100.00;101662.69;5036495;28;20434;-82
2024/03/17 03:03:45;;;;;;;10.85;1.83;;;;;;;0.48;100.00;101663.44;5039761;28;20778;-82
2024/03/17 03:06:13;;;;;;;16.83;2.37;;;;;;;0.47;100.00;101664.44;5045161;28;20413;-82
2024/03/17 03:08:41;;;;;;;18.42;2.33;;;;;;;0.40;100.00;101660.88;5048370;28;20436;-82
2024/03/17 03:11:11;;;;;;;17.27;1.73;;;;;;;0.33;100.00;101663.47;5034265;28;20421;-83
2024/03/17 03:13:39;;;;;;;20.52;2.17;;;;;;;0.33;100.00;101660.78;5028418;28;20448;-82
2024/03/17 03:16:10;;;;;;;20.02;2.20;;;;;;;0.29;100.00;101655.00;5022887;28;21054;-82
2024/03/17 03:18:38;;;;;;;16.02;2.10;;;;;;;0.31;100.00;101668.19;5051598;28;20421;-82
2024/03/17 03:21:06;;;;;;;19.63;2.70;;;;;;;0.44;100.00;101671.03;5031804;28;20432;-83
2024/03/17 03:23:34;;;;;;;15.45;2.25;;;;;;;0.49;100.00;101662.41;5051558;28;21085;-83
2024/03/17 03:26:04;;;;;;;15.30;2.25;;;;;;;0.46;100.00;101670.84;5033476;28;20434;-82
2024/03/17 03:28:34;;;;;;;21.02;2.25;;;;;;;0.33;100.00;101672.34;5034271;28;20419;-82
2024/03/17 03:31:02;;;;;;;12.77;2.00;;;;;;;0.30;100.00;101671.88;5040033;28;20838;-83
2024/03/17 03:33:31;;;;;;;16.43;2.43;;;;;;;0.29;100.00;101675.56;5040119;28;21236;-83
2024/03/17 03:35:58;;;;;;;15.13;2.53;;;;;;;0.36;100.00;101678.31;5034700;28;21293;-83
2024/03/17 03:38:26;;;;;;;13.40;2.30;;;;;;;0.25;100.00;101677.81;5046233;28;21115;-82
2024/03/17 03:40:53;;;;;;;16.60;2.10;;;;;;;0.29;100.00;101676.41;5036534;28;20408;-83
2024/03/17 03:43:21;;;;;;;18.85;2.30;;;;;;;0.18;100.00;101676.91;5038315;28;20416;-82
2024/03/17 03:45:49;;;;;;;15.70;2.10;;;;;;;0.17;100.00;101672.53;5034049;28;20428;-82
2024/03/17 03:48:18;;;;;;;17.90;2.38;;;;;;;0.18;100.00;101674.22;5027439;28;20801;-84
2024/03/17 03:50:47;;;;;;;16.70;2.40;;;;;;;0.17;100.00;101678.72;5039571;28;20424;-82
2024/03/17 03:53:15;;;;;;;18.25;2.67;;;;;;;0.30;100.00;101682.59;5056231;28;20427;-83
2024/03/17 03:55:42;;;;;;;14.30;2.00;;;;;;;0.20;100.00;101677.53;5043912;28;20757;-83
2024/03/17 03:58:12;;;;;;;16.02;2.45;;;;;;;0.20;100.00;101682.88;5029216;28;20416;-82
2024/03/17 04:00:39;;;;;;;17.63;2.70;;;;;;;0.13;100.00;101665.91;5041961;28;20869;-82
2024/03/17 04:03:06;;;;;;;13.27;2.00;;;;;;;0.06;100.00;101676.53;5035947;28;20431;-82
2024/03/17 04:05:34;;;;;;;10.15;2.00;;;;;;;0.03;100.00;101684.06;5030379;28;20944;-82
2024/03/17 04:08:04;;;;;;;15.73;2.13;;;;;;;-0.05;100.00;101677.81;5033747;28;20438;-82
2024/03/17 04:10:31;;;;;;;15.02;2.80;;;;;;;-0.03;100.00;101675.78;5036094;28;20416;-83
2024/03/17 04:12:58;;;;;;;14.32;2.00;;;;;;;0.02;100.00;101679.75;5031586;28;20438;-82
2024/03/17 04:15:26;;;;;;;13.05;1.90;;;;;;;-0.02;100.00;101676.59;5028771;28;20424;-83
2024/03/17 04:17:53;;;;;;;15.75;2.17;;;;;;;-0.15;100.00;101673.75;5027515;28;20427;-82
2024/03/17 04:20:21;;;;;;;15.38;2.40;;;;;;;-0.15;100.00;101677.25;5033439;28;20433;-83
2024/03/17 04:22:48;;;;;;;17.65;2.10;;;;;;;-0.04;100.00;101666.09;5031240;28;20415;-82
2024/03/17 04:25:18;;;;;;;16.07;1.90;;;;;;;-0.04;100.00;101675.97;5016928;28;20488;-82
2024/03/17 04:27:45;;;;;;;17.10;2.20;;;;;;;-0.26;100.00;101681.22;5035849;28;20643;-82
2024/03/17 04:30:14;;;;;;;12.57;2.03;;;;;;;-0.25;100.00;101676.69;5025752;28;20417;-83
2024/03/17 04:32:40;;;;;;;12.98;1.90;;;;;;;-0.22;100.00;101670.97;5049152;28;20899;-81
2024/03/17 04:35:08;;;;;;;17.15;2.10;;;;;;;-0.13;100.00;101674.41;5037487;28;20416;-81
2024/03/17 04:37:38;;;;;;;14.93;2.00;;;;;;;-0.16;100.00;101675.59;5037189;28;20415;-82
2024/03/17 04:40:10;;;;;;;15.63;1.87;;;;;;;-0.15;100.00;101682.63;5048729;28;20419;-81
2024/03/17 04:42:39;;;;;;;15.80;2.05;;;;;;;-0.04;100.00;101687.50;5035309;28;20419;-83
2024/03/17 04:45:09;;;;;;;18.48;2.17;;;;;;;-0.04;100.00;101687.50;5032476;28;20431;-83
2024/03/17 04:47:38;;;;;;;20.27;2.25;;;;;;;0.01;100.00;101692.28;5041843;28;20424;-82
2024/03/17 04:50:06;;;;;;;14.20;2.25;;;;;;;-0.01;100.00;101694.34;5043455;28;20405;-83
2024/03/17 04:52:33;;;;;;;13.70;2.33;;;;;;;-0.03;100.00;101691.00;5032936;28;20413;-82
2024/03/17 04:55:03;;;;;;;15.07;2.38;;;;;;;-0.23;100.00;101696.91;5033655;28;20786;-81
2024/03/17 04:57:31;;;;;;;12.83;2.30;;;;;;;-0.32;100.00;101689.13;5031455;28;20507;-81
2024/03/17 05:00:00;;;;;;;13.60;2.13;;;;;;;-0.32;100.00;101692.63;5056468;28;20450;-84
2024/03/17 05:02:27;;;;;;;17.50;2.53;;;;;;;-0.30;100.00;101695.97;5045353;28;20422;-83
2024/03/17 05:04:55;;;;;;;18.50;2.30;;;;;;;-0.40;100.00;101688.22;5027236;28;20422;-82
2024/03/17 05:07:22;;;;;;;10.77;1.92;;;;;;;-0.40;100.00;101687.38;5033985;28;20426;-81
2024/03/17 05:09:50;;;;;;;15.40;2.35;;;;;;;-0.43;100.00;101685.91;5031652;28;20408;-81
2024/03/17 05:12:18;;;;;;;17.17;2.40;;;;;;;-0.40;100.00;101695.38;5047977;28;20419;-81
2024/03/17 05:14:46;;;;;;;13.80;2.42;;;;;;;-0.39;100.00;101697.91;5034210;28;20424;-82
2024/03/17 05:17:15;;;;;;;21.60;2.33;;;;;;;-0.29;100.00;101699.47;5047519;28;20454;-82
2024/03/17 05:19:42;;;;;;;12.85;2.28;;;;;;;-0.31;100.00;101706.84;5054488;28;20419;-83
2024/03/17 05:22:10;;;;;;;18.35;2.33;;;;;;;-0.36;100.00;101702.88;5031663;28;20424;-82
2024/03/17 05:24:38;;;;;;;18.73;2.50;;;;;;;-0.31;100.00;101714.88;5028147;28;20464;-82
2024/03/17 05:27:05;;;;;;;15.50;2.40;;;;;;;-0.14;100.00;101710.19;5038159;28;20785;-82
2024/03/17 05:29:36;;;;;;;15.85;2.50;;;;;;;-0.11;100.00;101715.16;5028818;28;20408;-84
2024/03/17 05:32:04;;;;;;;17.77;2.72;;;;;;;-0.07;100.00;101722.66;5042173;28;21189;-82
2024/03/17 05:34:34;;;;;;;18.67;2.35;;;;;;;-0.01;100.00;101724.59;5046724;28;20450;-81
2024/03/17 05:37:01;;;;;;;20.83;2.58;;;;;;;-0.12;100.00;101724.22;5053860;28;20434;-83
2024/03/17 05:39:29;;;;;;;20.00;2.42;;;;;;;-0.11;100.00;101733.91;5035595;28;20899;-82
2024/03/17 05:41:56;;;;;;;14.93;2.13;;;;;;;-0.04;100.00;101734.84;5051798;28;20415;-82
2024/03/17 05:44:24;;;;;;;16.63;2.60;;;;;;;-0.09;100.00;101732.72;5032273;28;20992;-83
2024/03/17 05:46:52;;;;;;;20.98;2.65;;;;;;;-0.10;100.00;101738.25;5046537;28;20420;-82
2024/03/17 05:49:21;;;;;;;18.20;2.40;;;;;;;-0.01;100.00;101732.63;5041691;28;20446;-82
2024/03/17 05:51:49;;;;;;;18.95;3.20;;;;;;;-0.05;100.00;101735.88;5029892;28;20413;-82
2024/03/17 05:54:17;;;;;;;15.00;2.60;;;;;;;-0.10;100.00;101741.75;5042715;28;20408;-83
2024/03/17 05:56:44;;;;;;;16.15;2.55;;;;;;;0.04;100.00;101745.44;5033404;28;20430;-82
2024/03/17 05:59:12;;;;;;;24.40;3.30;;;;;;;0.07;100.00;101736.22;5029486;28;20415;-82
2024/03/17 06:01:39;;;;;;;22.77;2.87;;;;;;;0.13;100.00;101744.34;5032897;28;20432;-83
2024/03/17 06:04:07;;;;;;;19.35;2.97;;;;;;;0.21;100.00;101742.59;5034716;28;20496;-82
2024/03/17 06:06:34;;;;;;;20.23;2.78;;;;;;;0.36;100.00;101745.28;5031905;28;20424;-83
2024/03/17 06:09:04;;;;;;;15.25;2.65;;;;;;;0.28;100.00;101740.84;5051975;28;20447;-82
2024/03/17 06:11:34;;;;;;;19.63;3.05;;;;;;;0.40;100.00;101747.41;5062782;28;20432;-81
2024/03/17 06:14:04;;;;;;;21.67;3.00;;;;;;;0.46;100.00;101748.50;5049397;28;20926;-82
2024/03/17 06:16:32;;;;;;;16.85;2.92;;;;;;;0.51;100.00;101756.78;5060422;28;20411;-83
2024/03/17 06:18:59;;;;;;;14.68;2.72;;;;;;;0.52;100.00;101752.28;5038139;28;20424;-82
2024/03/17 06:21:26;;;;;;;22.35;3.03;;;;;;;0.53;100.00;101762.81;5038035;28;20415;-82
2024/03/17 06:23:54;;;;;;;20.45;2.90;;;;;;;0.67;100.00;101755.78;5027150;28;20895;-81
2024/03/17 06:26:23;;;;;;;18.07;3.10;;;;;;;0.74;100.00;101758.53;5045409;28;20413;-82
2024/03/17 06:28:50;;;;;;;18.80;3.05;;;;;;;0.81;100.00;101759.44;5049188;28;20422;-82
2024/03/17 06:31:18;;;;;;;21.70;2.87;;;;;;;0.78;100.00;101763.31;5040571;28;20429;-81
2024/03/17 06:33:45;;;;;;;18.77;2.95;;;;;;;0.78;100.00;101762.50;5031124;28;20927;-83
2024/03/17 06:36:13;;;;;;;21.38;3.88;;;;;;;0.87;100.00;101769.41;5044834;28;20420;-82
2024/03/17 06:38:41;;;;;;;18.52;2.95;;;;;;;0.98;100.00;101763.56;5052791;28;20900;-83
2024/03/17 06:41:12;;;;;;;16.63;2.90;;;;;;;1.01;100.00;101765.84;5050733;28;20420;-81
2024/03/17 06:43:41;;;;;;;20.73;2.92;;;;;;;1.18;100.00;101771.00;5035330;28;20792;-83
2024/03/17 06:46:09;;;;;;;17.02;3.13;;;;;;;1.14;100.00;101773.22;5028780;28;21176;-82
2024/03/17 06:48:36;;;;;;;16.88;3.10;;;;;;;1.16;100.00;101760.47;5049684;28;20415;-81
2024/03/17 06:51:05;;;;;;;25.53;3.40;;;;;;;1.25;100.00;101765.69;5053985;28;20423;-81
2024/03/17 06:53:33;;;;;;;17.90;3.35;;;;;;;1.27;100.00;101769.00;5036470;28;20420;-81
2024/03/17 06:56:01;;;;;;;18.35;3.08;;;;;;;1.30;100.00;101765.97;5049868;28;20412;-82
2024/03/17 06:58:29;;;;;;;16.90;3.28;;;;;;;1.37;100.00;101774.91;5050498;28;20423;-82
2024/03/17 07:01:00;;;;;;;24.25;4.95;;;;;;;1.39;100.00;101772.84;5051583;28;21165;-81
2024/03/17 07:03:29;;;;;;;26.08;7.07;;;;;;;1.43;100.00;101775.97;5033505;28;20427;-82
2024/03/17 07:05:58;;;;;;;33.88;11.30;;;;;;;1.48;100.00;101771.69;5034438;28;21063;-82
2024/03/17 07:08:26;;;;;;;19.48;3.92;;;;;;;1.52;100.00;101781.03;5040611;28;20417;-81
2024/03/17 07:11:02;;;;;;;12.43;3.15;;;;;;;1.56;100.00;101781.47;5036088;28;20884;-82
2024/03/17 07:13:31;;;;;;;19.23;3.58;;;;;;;1.72;100.00;101779.53;5048833;28;20412;-82
2024/03/17 07:16:01;;;;;;;18.67;3.88;;;;;;;1.78;100.00;101792.16;5053278;28;20407;-84
2024/03/17 07:18:30;;;;;;;21.55;4.13;;;;;;;1.76;100.00;101787.00;5035362;28;20423;-83
2024/03/17 07:20:59;;;;;;;19.20;3.75;;;;;;;1.80;100.00;101787.47;5033027;28;20406;-81
2024/03/17 07:23:27;;;;;;;18.90;4.20;;;;;;;1.89;100.00;101785.44;5049039;28;20416;-82
2024/03/17 07:25:55;;;;;;;21.58;4.45;;;;;;;1.89;100.00;101786.28;5046252;28;20888;-81
2024/03/17 07:28:24;;;;;;;21.25;3.35;;;;;;;1.94;100.00;101791.88;5029815;28;21112;-81
2024/03/17 07:30:52;;;;;;;14.43;2.75;;;;;;;1.98;100.00;101790.47;5033655;28;20491;-82
2024/03/17 07:33:21;;;;;;;14.40;2.70;;;;;;;2.17;100.00;101799.72;5024004;28;20426;-83
2024/03/17 07:35:50;;;;;;;19.75;3.05;;;;;;;2.41;100.00;101797.56;5034967;28;20425;-82
2024/03/17 07:38:18;;;;;;;19.33;2.75;;;;;;;2.43;100.00;101806.28;5029495;28;20790;-83
2024/03/17 07:40:47;;;;;;;14.65;2.63;;;;;;;2.34;100.00;101805.59;5034844;28;20428;-81
2024/03/17 07:43:16;;;;;;;16.95;2.90;;;;;;;2.61;100.00;101808.44;5047799;28;20793;-80
2024/03/17 07:45:45;;;;;;;15.47;2.40;;;;;;;2.66;100.00;101811.34;5045544;28;20896;-80
2024/03/17 07:48:13;;;;;;;14.88;2.20;;;;;;;2.90;100.00;101814.59;5025955;28;20421;-80
2024/03/17 07:50:55;;;;;;;19.80;2.60;;;;;;;2.98;100.00;101811.69;5031723;28;20448;-80
2024/03/17 07:53:22;;;;;;;13.50;1.98;;;;;;;2.84;100.00;101813.50;5027363;28;20420;-81
2024/03/17 07:55:58;;;;;;;15.80;1.97;;;;;;;3.03;100.00;101808.41;5034579;28;20419;-82
2024/03/17 07:58:29;;;;;;;12.98;2.10;;;;;;;2.92;100.00;101817.88;5021981;28;20526;-79
2024/03/17 08:01:00;;;;;;;15.95;2.50;;;;;;;2.96;100.00;101811.09;5030073;28;20425;-79
2024/03/17 08:03:28;;;;;;;12.15;1.88;;;;;;;3.06;100.00;101814.22;5053544;28;20415;-78
2024/03/17 08:05:57;;;;;;;21.08;3.00;;;;;;;3.16;100.00;101813.84;5054162;28;20420;-78
2024/03/17 08:08:25;;;;;;;10.50;2.05;;;;;;;3.10;100.00;101819.19;5026936;28;20588;-78
2024/03/17 08:10:52;;;;;;;13.37;2.37;;;;;;;3.12;100.00;101820.66;5032983;28;20441;-79
2024/03/17 08:13:20;;;;;;;16.73;2.15;;;;;;;3.18;100.00;101827.91;5031644;28;20415;-79
2024/03/17 08:15:57;;;;;;;19.00;2.67;;;;;;;3.35;100.00;101828.38;5033663;28;20427;-80
2024/03/17 08:18:24;;;;;;;12.32;2.20;;;;;;;3.17;100.00;101838.88;5026022;28;20766;-79
2024/03/17 08:20:53;;;;;;;15.00;2.20;;;;;;;3.34;100.00;101836.66;5020194;28;20919;-78
2024/03/17 08:23:22;;;;;;;12.90;2.33;;;;;;;3.23;100.00;101838.91;5022292;28;20778;-80
2024/03/17 08:25:54;;;;;;;17.75;2.45;;;;;;;3.33;100.00;101832.28;5042216;28;22846;-80
2024/03/17 08:28:22;;;;;;;17.77;2.67;;;;;;;3.45;100.00;101829.84;5033841;28;20431;-78
2024/03/17 08:30:54;;;;;;;22.33;2.83;;;;;;;3.67;100.00;101827.81;5028387;28;20422;-79
2024/03/17 08:33:22;;;;;;;17.40;2.63;;;;;;;3.75;100.00;101822.22;5025110;28;20424;-82
2024/03/17 08:35:54;;;;;;;18.75;2.25;;;;;;;3.62;100.00;101824.91;5039990;28;20425;-80
2024/03/17 08:38:24;;;;;;;11.33;2.47;;;;;;;3.44;100.00;101828.19;5041939;28;20432;-83
2024/03/17 08:40:51;;;;;;;13.98;2.40;;;;;;;3.25;100.00;101836.00;5040235;28;20432;-84
2024/03/17 08:43:19;;;;;;;14.93;2.10;;;;;;;3.31;100.00;101834.38;5020787;28;20436;-83
2024/03/17 08:45:55;;;;;;;20.60;2.70;;;;;;;3.46;100.00;101835.03;5042969;28;20413;-80
2024/03/17 08:48:22;;;;;;;18.08;2.28;;;;;;;3.49;100.00;101836.47;5028453;28;20415;-81
2024/03/17 08:50:51;;;;;;;15.30;2.42;;;;;;;3.54;100.00;101836.72;5059812;28;20423;-82
2024/03/17 08:53:19;;;;;;;15.25;2.58;;;;;;;3.62;100.00;101841.03;5072059;28;20434;-82
2024/03/17 08:55:48;;;;;;;18.23;2.35;;;;;;;3.58;100.00;101836.09;5035577;28;20437;-82
2024/03/17 08:58:16;;;;;;;15.52;2.30;;;;;;;3.78;100.00;101832.56;5049830;28;20422;-87
2024/03/17 09:00:43;;;;;;;23.08;3.17;;;;;;;3.86;100.00;101824.31;5024592;28;20416;-81
2024/03/17 09:03:12;;;;;;;16.23;2.13;;;;;;;3.84;100.00;101826.38;5037982;28;20799;-82
2024/03/17 09:05:41;;;;;;;16.35;2.30;;;;;;;3.87;100.00;101825.16;5048428;28;20425;-83
2024/03/17 09:08:09;;;;;;;14.85;2.15;;;;;;;3.88;100.00;101819.56;5042118;28;20442;-82
2024/03/17 09:10:40;;;;;;;16.13;2.22;;;;;;;3.78;100.00;101821.81;5043224;28;20452;-82
2024/03/17 09:13:15;;;;;;;17.13;2.67;;;;;;;3.88;100.00;101810.63;5024425;28;20428;-82
2024/03/17 09:15:50;;;;;;;14.77;2.05;;;;;;;3.90;100.00;101814.78;5035131;28;20423;-88
2024/03/17 09:18:18;;;;;;;13.60;2.30;;;;;;;3.85;100.00;101817.28;5041868;28;21386;-83
2024/03/17 09:20:46;;;;;;;14.88;1.80;;;;;;;4.17;100.00;101812.09;5034110;28;20436;-85
2024/03/17 09:23:14;;;;;;;14.48;1.77;;;;;;;4.22;100.00;101809.56;5029142;28;20777;-84
2024/03/17 09:25:42;;;;;;;13.68;1.83;;;;;;;4.20;100.00;101813.53;5032087;28;20420;-83
2024/03/17 09:28:11;;;;;;;14.07;1.77;;;;;;;4.32;100.00;101811.00;5046346;28;20441;-83
2024/03/17 09:30:39;;;;;;;12.45;1.85;;;;;;;4.56;100.00;101809.53;5034483;28;20504;-83
2024/03/17 09:33:07;;;;;;;13.45;1.77;;;;;;;4.42;100.00;101814.13;5049299;28;20421;-83
2024/03/17 09:35:35;;;;;;;12.98;1.60;;;;;;;4.50;100.00;101804.97;5043443;28;21226;-83
2024/03/17 09:38:04;;;;;;;12.98;1.90;;;;;;;4.48;100.00;101810.56;5037880;28;20436;-82
2024/03/17 09:40:32;;;;;;;12.77;1.73;;;;;;;4.38;100.00;101816.38;5043523;28;20428;-83
2024/03/17 09:42:59;;;;;;;13.05;1.92;;;;;;;4.57;100.00;101811.16;5038783;28;20424;-81
2024/03/17 09:45:29;;;;;;;12.60;2.00;;;;;;;4.62;100.00;101814.03;5055166;28;20438;-84
2024/03/17 09:47:57;;;;;;;12.68;1.67;;;;;;;4.62;100.00;101819.44;5026436;28;20416;-82
2024/03/17 09:50:26;;;;;;;10.70;2.10;;;;;;;4.77;100.00;101816.50;5023002;28;20425;-81
2024/03/17 09:52:53;;;;;;;11.00;1.83;;;;;;;4.54;100.00;101823.22;5046748;28;20416;-82
2024/03/17 09:55:21;;;;;;;16.15;2.17;;;;;;;4.58;100.00;101829.00;5027770;28;20422;-84
2024/03/17 09:57:49;;;;;;;12.68;1.95;;;;;;;4.90;100.00;101826.41;5035900;28;20410;-81
2024/03/17 10:00:17;;;;;;;13.87;1.83;;;;;;;4.93;100.00;101824.13;5044168;28;20423;-82
2024/03/17 10:02:46;;;;;;;13.47;1.83;;;;;;;5.07;100.00;101837.56;5019335;28;20421;-82
2024/03/17 10:05:22;;;;;;;12.38;2.35;;;;;;;5.02;100.00;101827.38;5028283;28;20428;-82
2024/03/17 10:07:50;;;;;;;15.02;2.38;;;;;;;5.27;100.00;101830.19;5038118;28;20438;-82
2024/03/17 10:10:18;;;;;;;14.68;1.85;;;;;;;5.36;100.00;101829.91;5037874;28;20424;-84
2024/03/17 10:12:50;;;;;;;10.57;1.90;;;;;;;5.56;100.00;101830.63;5035975;28;20435;-83
2024/03/17 10:15:19;;;;;;;13.55;2.33;;;;;;;5.61;100.00;101838.09;5050570;28;20432;-83
2024/03/17 10:17:48;;;;;;;13.82;1.83;;;;;;;5.58;100.00;101831.25;5023827;28;20405;-82
2024/03/17 10:20:17;;;;;;;8.68;1.73;;;;;;;5.23;100.00;101834.38;5030417;28;21099;-82
2024/03/17 10:23:02;;;;;;;13.23;1.60;;;;;;;5.15;100.00;101852.66;5048911;28;20426;-82
2024/03/17 10:25:30;;;;;;;14.37;1.90;;;;;;;4.81;100.00;101846.56;5046251;28;20982;-82
2024/03/17 10:27:58;;;;;;;12.48;2.05;;;;;;;4.79;100.00;101840.56;5031733;28;21194;-82
2024/03/17 10:30:28;;;;;;;12.02;1.70;;;;;;;4.88;100.00;101852.78;5025118;28;20417;-82
2024/03/17 10:32:58;;;;;;;9.73;2.03;;;;;;;4.92;100.00;101849.44;5047907;28;20427;-82
2024/03/17 10:35:27;;;;;;;9.77;1.85;;;;;;;4.87;100.00;101851.94;5039392;28;20765;-82
2024/03/17 10:37:55;;;;;;;8.35;1.67;;;;;;;4.82;100.00;101851.75;5032113;28;20416;-82
2024/03/17 10:40:24;;;;;;;8.80;1.90;;;;;;;4.99;100.00;101853.97;5008136;28;20977;-82
2024/03/17 10:42:52;;;;;;;10.20;1.60;;;;;;;5.03;100.00;101857.91;5024062;28;20405;-81
2024/03/17 10:45:21;;;;;;;10.85;1.75;;;;;;;4.93;100.00;101853.78;5013985;28;20842;-84
2024/03/17 10:47:50;;;;;;;8.57;1.42;;;;;;;4.97;100.00;101854.16;5017286;28;20434;-86
2024/03/17 10:50:21;;;;;;;10.13;1.80;;;;;;;5.00;100.00;101852.91;5032824;28;21199;-84
2024/03/17 10:52:54;;;;;;;11.43;1.83;;;;;;;5.26;100.00;101851.97;5012324;28;20424;-85
2024/03/17 10:55:24;;;;;;;7.88;1.70;;;;;;;5.28;100.00;101845.31;5030047;28;20427;-82
2024/03/17 10:57:53;;;;;;;8.32;1.80;;;;;;;5.21;100.00;101844.53;5014756;28;20423;-84
2024/03/17 11:00:22;;;;;;;9.82;1.80;;;;;;;5.19;100.00;101843.09;5017639;28;20424;-86
2024/03/17 11:02:51;;;;;;;9.50;1.60;;;;;;;5.25;100.00;101837.66;5015831;28;20442;-81
2024/03/17 11:05:23;;;;;;;5.18;1.30;;;;;;;5.47;100.00;101841.91;5015676;28;20444;-84
2024/03/17 11:07:54;;;;;;;9.07;1.88;;;;;;;5.70;100.00;101839.44;5020839;28;20946;-85
2024/03/17 11:10:23;;;;;;;8.70;1.70;;;;;;;5.78;100.00;101838.38;5015931;28;20518;-85
2024/03/17 11:12:52;;;;;;;6.65;1.30;;;;;;;5.88;100.00;101833.31;5018692;28;20439;-84
2024/03/17 11:15:51;;;;;;;7.82;1.50;;;;;;;6.13;100.00;101829.78;5019296;28;20427;-82
2024/03/17 11:18:38;;;;;;;8.27;1.65;;;;;;;6.05;100.00;101832.78;5032467;28;20456;-85
2024/03/17 11:21:20;;;;;;;8.10;1.63;;;;;;;6.23;100.00;101834.72;5020650;28;20435;-81
2024/03/17 11:24:01;;;;;;;7.28;1.35;;;;;;;6.01;100.00;101835.13;5031914;28;20514;-85
2024/03/17 11:26:33;;;;;;;7.45;1.52;;;;;;;6.04;100.00;101840.06;5019559;28;21287;-85